Centennial, WY

2:02 AM MST on December 25, 2014 (GMT -0700)
Aspen Country | Change Station
CLOSE
Current Station
Personal Weather Station
Location: Centennial, WY
Elevation: 8050 ft
Nearby Weather Stations
Active Advisory: Winter Storm Warning

Elev 8050 ft 41.29 °N, 106.15 °W | Updated 2 minutes ago

Mostly Cloudy
Mostly Cloudy
28.2 °F
Feels Like 19 °F
N
10.0
Wind Variable Wind from South
Gusts 14.0 mph

Today
High -- | Low -- °F
--% Chance of Precip.
Yesterday
High -- | Low -- °F
Precip. -- in
7:28 AM 4:40 PM
Waxing Crescent, 14% visible
Pressure 29.41 in
Visibility 10.0 miles
Clouds Clear
Windchill 19 °F
Dew Point 20 °F
Humidity 71%
Rainfall 0.00 in
Snow Depth Not available.
UV 0 out of 12
Pollen .10 out of 12
Air Quality Not available.
Flu Activity Not available.
METAR KLAR 250853Z AUTO 23012KT 10SM CLR M01/M07 A2943 RMK AO2 PK WND 22030/0800 SLP957 T10111067 55007

More Conditions Fewer Conditions

Pressure 29.41 in
Visibility 10.0 miles
Clouds Clear
Windchill 19 °F
Dew Point 20 °F
Humidity 71%
Rainfall 0.00 in
Snow Depth Not available.
UV 0 out of 12
Pollen .10 out of 12
Air Quality Not available.
Flu Activity Not available.
METAR KLAR 250853Z AUTO 23012KT 10SM CLR M01/M07 A2943 RMK AO2 PK WND 22030/0800 SLP957 T10111067 55007

More Conditions Fewer Conditions

10-Day Weather Forecast

Almanac

Astronomy

Dec. 25, 2014 Rise Set
Actual Time
Civil Twilight
Nautical Twilight
Astronomical Twilight
Moon
Length of Visible Light
Length of Day
Tomorrow will be .
, % of the Moon is Illuminated

Today's Extremes

State Highs State Lows

Community

WunderPhotos

Upload Photos

1,780,250 photos uploaded!

WunderBlogs® & News

Nearby

Air Quality

  Air Quality AQ Index Pollutant
Not available.

Snow Depth

Station Depth Elevation

Earthquake Activity

City Distance Mag. Time & Date
Minimum magnitude displayed is 2.5.

Coastal Water Temperatures

Place Temperature

Nearby Weather Stations